Time;durP1;ratioP1;P1;durP2;ratioP2;P2;SDS_P1;SDS_P2;PMS_P1;PMS_P2;Temp;Humidity;BMP_temperature;BMP_pressure;BME280_temperature;BME280_humidity;BME280_pressure;Samples;Min_cycle;Max_cycle;Signal;HPM_P1;HPM_P2
2021/12/23 00:01:32;;;;;;;63.17;53.60;;;-2.50;95.50;;;;;;5033955;28;20206;-71
2021/12/23 00:03:59;;;;;;;65.47;52.92;;;-2.50;93.70;;;;;;5034013;28;20253;-71
2021/12/23 00:06:26;;;;;;;69.82;54.25;;;-2.50;93.30;;;;;;5033867;28;20196;-72
2021/12/23 00:08:57;;;;;;;57.40;51.00;;;-2.40;92.60;;;;;;5033932;28;20206;-72
2021/12/23 00:11:24;;;;;;;57.88;49.75;;;-2.50;91.80;;;;;;5033723;28;20208;-71
2021/12/23 00:14:00;;;;;;;73.93;54.20;;;-2.50;92.20;;;;;;5033734;28;20219;-71
2021/12/23 00:16:42;;;;;;;61.15;50.78;;;-2.30;92.00;;;;;;5033835;28;20198;-72
2021/12/23 00:19:20;;;;;;;61.35;54.15;;;-2.30;92.40;;;;;;5033787;28;20623;-72
2021/12/23 00:24:34;;;;;;;87.78;56.05;;;-2.30;91.90;;;;;;5033767;28;20594;-71
2021/12/23 00:27:01;;;;;;;416.35;94.95;;;-2.40;95.40;;;;;;5033687;28;20677;-71
2021/12/23 00:29:28;;;;;;;327.23;79.70;;;-2.40;95.10;;;;;;5033260;28;20197;-71
2021/12/23 00:31:55;;;;;;;1300.10;215.13;;;-2.40;94.90;;;;;;5033813;28;20209;-72
2021/12/23 00:34:22;;;;;;;62.30;51.80;;;-2.50;95.90;;;;;;5033269;28;20222;-71
2021/12/23 00:36:49;;;;;;;58.10;49.95;;;-2.50;96.00;;;;;;5033608;28;20220;-71
2021/12/23 00:39:17;;;;;;;60.33;50.33;;;-2.40;95.30;;;;;;5032757;28;20221;-71
2021/12/23 00:41:45;;;;;;;195.15;65.00;;;-2.30;95.70;;;;;;5033694;28;20202;-71
2021/12/23 00:44:13;;;;;;;692.13;143.25;;;-2.40;94.20;;;;;;5033310;28;20590;-71
2021/12/23 00:46:40;;;;;;;91.28;55.92;;;-2.40;95.90;;;;;;5033336;28;20234;-71
2021/12/23 00:49:07;;;;;;;188.88;68.28;;;-2.40;96.50;;;;;;5033333;28;20292;-71
2021/12/23 00:51:34;;;;;;;263.47;78.47;;;-2.40;96.60;;;;;;4995157;28;1109610;-71
2021/12/23 00:54:04;;;;;;;543.08;114.05;;;-2.40;94.90;;;;;;5034184;28;20303;-71
2021/12/23 00:56:33;;;;;;;95.70;59.22;;;-2.40;96.70;;;;;;5034277;28;20229;-72
2021/12/23 00:59:02;;;;;;;60.38;49.30;;;-2.40;97.50;;;;;;5034086;28;20206;-71
2021/12/23 01:01:29;;;;;;;59.92;50.33;;;-2.40;96.40;;;;;;5033941;28;20195;-71
2021/12/23 01:03:56;;;;;;;63.10;52.15;;;-2.30;96.80;;;;;;5033997;28;20216;-71
2021/12/23 01:06:23;;;;;;;61.03;52.00;;;-2.40;94.60;;;;;;5033920;28;20213;-71
2021/12/23 01:08:50;;;;;;;60.20;52.35;;;-2.30;94.20;;;;;;5034049;28;20196;-71
2021/12/23 01:11:17;;;;;;;57.72;51.47;;;-2.30;92.20;;;;;;5033825;28;20290;-72
2021/12/23 01:13:59;;;;;;;64.93;51.88;;;-2.30;91.90;;;;;;5033683;28;20590;-71
2021/12/23 01:16:47;;;;;;;56.53;50.15;;;-2.30;92.10;;;;;;5033700;28;20235;-71
2021/12/23 01:19:14;;;;;;;260.27;78.43;;;-2.30;92.50;;;;;;5033650;28;20721;-71
2021/12/23 01:21:41;;;;;;;63.85;52.20;;;-2.30;92.40;;;;;;5033673;28;20282;-72
2021/12/23 01:24:09;;;;;;;64.65;55.50;;;-2.30;95.70;;;;;;5033555;28;20220;-71
2021/12/23 01:26:37;;;;;;;93.63;58.92;;;-2.30;96.20;;;;;;5033552;28;20226;-71
2021/12/23 01:29:04;;;;;;;969.28;160.95;;;-2.30;96.20;;;;;;5033508;28;20247;-72
2021/12/23 01:31:34;;;;;;;56.25;50.00;;;-2.30;98.30;;;;;;5033552;28;20203;-72
2021/12/23 01:34:02;;;;;;;70.85;53.30;;;-2.20;97.60;;;;;;5033399;28;20220;-71
2021/12/23 01:36:29;;;;;;;476.08;116.22;;;-2.10;95.70;;;;;;5032613;28;20203;-72
2021/12/23 01:38:56;;;;;;;121.47;61.55;;;-2.20;95.00;;;;;;5033241;28;20220;-72
2021/12/23 01:41:26;;;;;;;62.15;54.10;;;-2.20;94.90;;;;;;5033008;28;20689;-71
2021/12/23 01:43:53;;;;;;;64.70;54.75;;;-2.00;92.80;;;;;;5033125;28;20227;-72
2021/12/23 01:46:22;;;;;;;62.65;52.83;;;-2.00;92.20;;;;;;5033216;28;20657;-72
2021/12/23 01:48:51;;;;;;;56.83;50.05;;;-1.90;90.70;;;;;;5033183;28;20211;-71
2021/12/23 01:51:18;;;;;;;57.00;50.85;;;-1.90;89.10;;;;;;5032981;28;20212;-71
2021/12/23 01:53:45;;;;;;;56.90;50.72;;;-1.90;88.40;;;;;;5033063;28;20230;-71
2021/12/23 01:56:12;;;;;;;59.35;52.88;;;-1.90;88.30;;;;;;5033060;28;20661;-71
2021/12/23 01:58:40;;;;;;;59.58;52.05;;;-1.80;87.40;;;;;;5032991;28;20220;-71
2021/12/23 02:01:10;;;;;;;55.75;49.67;;;-1.80;87.10;;;;;;5032989;28;20223;-70
2021/12/23 02:03:38;;;;;;;59.72;53.03;;;-1.90;87.40;;;;;;5032784;28;20216;-71
2021/12/23 02:06:06;;;;;;;56.97;50.83;;;-1.80;88.20;;;;;;5032805;28;20203;-71
2021/12/23 02:08:34;;;;;;;81.93;53.88;;;-2.00;87.80;;;;;;5032857;28;20202;-71
2021/12/23 02:11:02;;;;;;;55.38;49.40;;;-2.00;88.80;;;;;;5032771;28;20203;-72
2021/12/23 02:13:29;;;;;;;59.25;50.17;;;-1.90;87.90;;;;;;5032637;28;20207;-71
2021/12/23 02:15:57;;;;;;;54.33;48.10;;;-1.90;87.60;;;;;;5032754;28;20203;-71
2021/12/23 02:18:24;;;;;;;52.08;46.63;;;-2.00;88.30;;;;;;5032712;28;20235;-72
2021/12/23 02:20:53;;;;;;;53.42;47.53;;;-1.90;88.70;;;;;;5032636;28;20205;-72
2021/12/23 02:23:20;;;;;;;69.65;50.10;;;-1.90;90.10;;;;;;5032635;28;20205;-72
2021/12/23 02:25:47;;;;;;;57.67;49.30;;;-1.90;89.20;;;;;;5032656;28;20679;-72
2021/12/23 02:28:16;;;;;;;53.05;47.15;;;-1.80;90.40;;;;;;5032583;28;20626;-72
2021/12/23 02:30:43;;;;;;;80.18;54.10;;;-1.90;91.30;;;;;;5032490;28;20203;-71
2021/12/23 02:33:10;;;;;;;58.45;49.00;;;-1.90;92.10;;;;;;5032423;28;20637;-72
2021/12/23 02:35:38;;;;;;;54.83;45.28;;;-1.90;92.60;;;;;;5032522;28;20619;-72
2021/12/23 02:38:06;;;;;;;51.28;45.72;;;-1.90;90.90;;;;;;5032602;28;20224;-72
2021/12/23 02:40:36;;;;;;;57.90;49.65;;;-2.00;90.20;;;;;;5032420;28;20200;-71
2021/12/23 02:43:10;;;;;;;57.20;50.97;;;-1.80;89.20;;;;;;5033077;28;20213;-71
2021/12/23 02:45:37;;;;;;;1999.90;675.50;;;-1.90;89.00;;;;;;5032659;28;20196;-72
2021/12/23 02:48:05;;;;;;;68.85;52.20;;;-1.90;90.50;;;;;;5033901;28;20207;-71
2021/12/23 02:50:32;;;;;;;56.17;49.97;;;-1.80;90.70;;;;;;5036358;28;20318;-72
2021/12/23 02:52:59;;;;;;;52.25;45.75;;;-1.90;88.90;;;;;;5036368;28;20576;-72
2021/12/23 02:55:27;;;;;;;264.00;70.60;;;-1.90;91.30;;;;;;5036266;28;20224;-72
2021/12/23 02:57:54;;;;;;;57.40;46.67;;;-1.90;93.30;;;;;;5036204;28;20216;-71
2021/12/23 03:00:22;;;;;;;1089.95;190.70;;;-1.90;93.20;;;;;;5036219;28;20200;-71
2021/12/23 03:02:48;;;;;;;266.63;69.38;;;-1.90;96.90;;;;;;5036348;28;20208;-72
2021/12/23 03:05:15;;;;;;;1510.43;272.55;;;-1.80;95.00;;;;;;5036105;28;20220;-72
2021/12/23 03:07:42;;;;;;;98.55;55.92;;;-1.80;93.80;;;;;;5036232;28;20196;-72
2021/12/23 03:10:11;;;;;;;1559.93;269.88;;;-1.80;93.80;;;;;;5035877;28;20287;-72
2021/12/23 03:12:39;;;;;;;248.60;73.65;;;-1.80;95.70;;;;;;5036103;28;20682;-72
2021/12/23 03:15:07;;;;;;;49.50;43.97;;;-1.80;96.20;;;;;;5035886;28;20231;-72
2021/12/23 03:17:34;;;;;;;46.47;41.58;;;-1.80;95.40;;;;;;5036009;28;20562;-72
2021/12/23 03:20:02;;;;;;;50.13;42.78;;;-1.80;92.40;;;;;;5035774;28;20767;-72
2021/12/23 03:22:28;;;;;;;50.90;45.35;;;-1.80;91.70;;;;;;5035855;28;20287;-71
2021/12/23 03:24:55;;;;;;;50.50;45.00;;;-1.70;90.70;;;;;;5035725;28;20226;-71
2021/12/23 03:27:23;;;;;;;49.22;44.20;;;-1.70;89.00;;;;;;5035743;28;20287;-71
2021/12/23 03:29:51;;;;;;;49.55;44.28;;;-1.70;88.90;;;;;;5035714;28;20223;-72
2021/12/23 03:32:18;;;;;;;49.10;44.15;;;-1.60;88.10;;;;;;5035899;28;20251;-71
2021/12/23 03:34:45;;;;;;;47.30;42.80;;;-1.60;86.60;;;;;;5035617;28;20799;-71
2021/12/23 03:37:12;;;;;;;48.67;43.78;;;-1.50;84.80;;;;;;5035378;28;20688;-72
2021/12/23 03:39:41;;;;;;;47.08;42.13;;;-1.60;85.20;;;;;;5035281;28;20224;-72
2021/12/23 03:42:09;;;;;;;48.70;43.25;;;-1.60;86.40;;;;;;5035401;28;20204;-72
2021/12/23 03:44:36;;;;;;;50.28;44.63;;;-1.60;85.60;;;;;;5035417;28;20220;-72
2021/12/23 03:47:04;;;;;;;48.95;43.65;;;-1.60;86.00;;;;;;5035522;28;20208;-71
2021/12/23 03:49:31;;;;;;;46.95;42.20;;;-1.60;88.20;;;;;;5035448;28;20659;-72
2021/12/23 03:51:58;;;;;;;50.13;44.08;;;-1.70;86.50;;;;;;5035211;28;20688;-71
2021/12/23 03:54:25;;;;;;;47.53;42.47;;;-1.60;85.80;;;;;;5035166;28;20235;-71
2021/12/23 03:56:52;;;;;;;310.05;77.57;;;-1.60;85.30;;;;;;5035250;28;20200;-71
2021/12/23 03:59:19;;;;;;;48.70;43.60;;;-1.50;86.20;;;;;;5034746;28;20230;-71
2021/12/23 04:01:46;;;;;;;50.08;44.63;;;-1.50;86.70;;;;;;5035205;28;20696;-71
2021/12/23 04:04:14;;;;;;;48.90;43.53;;;-1.50;85.90;;;;;;5035067;28;20216;-72
2021/12/23 04:06:41;;;;;;;47.50;42.55;;;-1.60;85.00;;;;;;5035004;28;20287;-71
2021/12/23 04:09:08;;;;;;;48.33;43.42;;;-1.50;85.30;;;;;;5034991;28;20210;-72
2021/12/23 04:11:35;;;;;;;47.70;42.70;;;-1.50;83.30;;;;;;5035047;28;20214;-72
2021/12/23 04:14:02;;;;;;;45.75;41.03;;;-1.50;83.20;;;;;;5034926;28;20224;-72
2021/12/23 04:16:29;;;;;;;46.35;41.58;;;-1.40;83.00;;;;;;5034808;28;20214;-71
2021/12/23 04:18:56;;;;;;;47.70;42.83;;;-1.40;83.10;;;;;;5034780;28;20221;-71
2021/12/23 04:21:25;;;;;;;45.92;41.35;;;-1.50;83.40;;;;;;5034846;28;20212;-72
2021/12/23 04:23:52;;;;;;;46.20;41.38;;;-1.50;83.50;;;;;;5034674;28;20224;-71
2021/12/23 04:26:19;;;;;;;53.05;44.28;;;-1.50;83.30;;;;;;5034813;28;20287;-71
2021/12/23 04:28:47;;;;;;;49.45;44.15;;;-1.40;84.00;;;;;;5034646;28;20196;-71
2021/12/23 04:31:16;;;;;;;47.00;42.20;;;-1.40;84.80;;;;;;5034603;28;20220;-71
2021/12/23 04:33:44;;;;;;;52.58;44.80;;;-1.40;84.50;;;;;;5034358;28;20233;-72
2021/12/23 04:36:10;;;;;;;47.40;42.20;;;-1.40;85.80;;;;;;5034210;28;20207;-72
2021/12/23 04:38:41;;;;;;;49.42;44.38;;;-1.30;84.80;;;;;;5034516;28;20224;-72
2021/12/23 04:41:08;;;;;;;47.00;42.30;;;-1.30;83.60;;;;;;5034235;28;20691;-71
2021/12/23 04:43:34;;;;;;;47.50;42.78;;;-1.40;83.30;;;;;;5034473;28;20260;-71
2021/12/23 04:46:02;;;;;;;48.50;43.65;;;-1.40;82.90;;;;;;5034345;28;20212;-71
2021/12/23 04:48:29;;;;;;;49.10;44.22;;;-1.40;83.50;;;;;;5034222;28;20203;-71
2021/12/23 04:50:56;;;;;;;43.65;39.45;;;-1.60;83.30;;;;;;5034117;28;20294;-71
2021/12/23 04:53:23;;;;;;;47.22;42.33;;;-1.50;82.70;;;;;;5034147;28;20207;-72
2021/12/23 04:55:52;;;;;;;46.58;41.85;;;-1.60;82.80;;;;;;5034223;28;20631;-71
2021/12/23 04:58:19;;;;;;;47.50;42.78;;;-1.40;82.70;;;;;;5034101;28;20230;-71
2021/12/23 05:00:49;;;;;;;47.95;42.75;;;-1.40;82.60;;;;;;5033949;28;20264;-72
2021/12/23 05:03:16;;;;;;;47.42;42.75;;;-1.40;82.40;;;;;;5033964;28;20250;-72
2021/12/23 05:05:43;;;;;;;44.20;39.60;;;-1.40;82.60;;;;;;5034201;28;20570;-71
2021/12/23 05:08:11;;;;;;;44.88;40.38;;;-1.30;82.50;;;;;;5033913;28;20205;-72
2021/12/23 05:10:38;;;;;;;47.10;42.25;;;-1.30;82.60;;;;;;5032986;28;20207;-71
2021/12/23 05:13:06;;;;;;;49.85;45.10;;;-1.40;81.80;;;;;;5033912;28;20197;-72
2021/12/23 05:15:33;;;;;;;45.75;41.22;;;-1.40;82.50;;;;;;5033813;28;20244;-72
2021/12/23 05:18:00;;;;;;;46.13;41.42;;;-1.40;82.30;;;;;;5033611;28;20197;-72
2021/12/23 05:20:28;;;;;;;43.75;39.42;;;-1.30;82.10;;;;;;5033474;28;20284;-72
2021/12/23 05:22:55;;;;;;;54.22;43.70;;;-1.20;82.00;;;;;;5033680;28;20688;-71
2021/12/23 05:25:22;;;;;;;45.85;41.35;;;-1.20;82.20;;;;;;5033674;28;20220;-72
2021/12/23 05:27:52;;;;;;;45.97;41.25;;;-1.20;82.80;;;;;;5033574;28;20295;-71
2021/12/23 05:30:22;;;;;;;43.45;39.00;;;-1.20;83.00;;;;;;5033403;28;20266;-72
2021/12/23 05:32:49;;;;;;;44.30;40.00;;;-1.30;84.60;;;;;;5033655;28;20196;-72
2021/12/23 05:35:18;;;;;;;44.95;40.50;;;-1.20;87.30;;;;;;5033310;28;20248;-72
2021/12/23 05:37:46;;;;;;;86.72;44.47;;;-1.20;87.30;;;;;;5033388;28;20210;-71
2021/12/23 05:40:16;;;;;;;45.67;40.90;;;-1.20;85.50;;;;;;5032927;28;20220;-72
2021/12/23 05:42:43;;;;;;;46.33;41.35;;;-1.20;84.70;;;;;;5033195;28;20709;-72
2021/12/23 05:45:11;;;;;;;44.80;40.25;;;-1.20;84.20;;;;;;5033262;28;20304;-72
2021/12/23 05:47:40;;;;;;;44.33;39.63;;;-1.20;84.10;;;;;;5033301;28;20242;-71
2021/12/23 05:50:08;;;;;;;45.70;40.83;;;-1.20;83.10;;;;;;5032973;28;20200;-72
2021/12/23 05:52:35;;;;;;;45.53;40.80;;;-1.20;82.50;;;;;;5033260;28;20212;-72
2021/12/23 05:55:03;;;;;;;45.42;40.97;;;-1.20;83.00;;;;;;5033007;28;20319;-72
2021/12/23 05:57:30;;;;;;;169.90;51.30;;;-1.20;82.90;;;;;;5033252;28;20243;-71
2021/12/23 05:59:57;;;;;;;45.67;40.90;;;-1.20;82.50;;;;;;5032767;28;20220;-72
2021/12/23 06:02:25;;;;;;;48.85;44.17;;;-1.20;83.70;;;;;;5033047;28;20702;-72
2021/12/23 06:04:53;;;;;;;47.42;42.45;;;-1.20;82.90;;;;;;5032868;28;20234;-72
2021/12/23 06:07:21;;;;;;;46.55;41.60;;;-1.20;84.70;;;;;;5032888;28;20211;-72
2021/12/23 06:09:48;;;;;;;49.80;43.83;;;-1.20;85.30;;;;;;5032844;28;20292;-72
2021/12/23 06:12:15;;;;;;;46.50;41.78;;;-1.30;85.00;;;;;;5033009;28;20558;-72
2021/12/23 06:14:42;;;;;;;45.60;41.10;;;-1.20;84.20;;;;;;5032746;28;20225;-72
2021/12/23 06:17:09;;;;;;;45.33;40.78;;;-1.30;82.90;;;;;;5032703;28;20566;-71
2021/12/23 06:19:36;;;;;;;45.15;40.45;;;-1.30;83.30;;;;;;5032558;28;20228;-72
2021/12/23 06:22:04;;;;;;;45.08;40.42;;;-1.30;83.40;;;;;;5032715;28;20197;-72
2021/12/23 06:24:31;;;;;;;44.83;40.03;;;-1.20;83.20;;;;;;5032589;28;20221;-71
2021/12/23 06:26:58;;;;;;;41.58;37.38;;;-1.30;83.60;;;;;;5032667;28;20237;-72
2021/12/23 06:29:25;;;;;;;46.55;41.90;;;-1.30;84.00;;;;;;5032559;28;20673;-72
2021/12/23 06:31:52;;;;;;;44.15;39.58;;;-1.30;83.30;;;;;;5032637;28;20654;-72
2021/12/23 06:34:19;;;;;;;43.33;38.85;;;-1.20;83.00;;;;;;5032533;28;20243;-72
2021/12/23 06:36:46;;;;;;;48.30;43.40;;;-1.20;82.70;;;;;;5032142;28;20206;-72
2021/12/23 06:39:15;;;;;;;46.38;41.85;;;-1.20;83.10;;;;;;5032300;28;20220;-72
2021/12/23 06:41:42;;;;;;;47.03;42.22;;;-1.10;83.40;;;;;;5032465;28;20359;-72
2021/12/23 06:44:08;;;;;;;42.25;37.92;;;-1.10;86.80;;;;;;5032473;28;20224;-72
2021/12/23 06:46:35;;;;;;;907.85;139.88;;;-1.00;84.40;;;;;;5032575;28;20284;-72
2021/12/23 06:49:02;;;;;;;46.38;41.33;;;-0.90;87.70;;;;;;5032312;28;20208;-71
2021/12/23 06:51:30;;;;;;;44.60;40.03;;;-1.00;86.70;;;;;;5032214;28;20219;-72
2021/12/23 06:53:58;;;;;;;44.83;40.00;;;-1.00;84.90;;;;;;5032238;28;20643;-72
2021/12/23 06:56:27;;;;;;;45.28;40.58;;;-1.00;89.40;;;;;;5032322;28;20532;-72
2021/12/23 06:58:54;;;;;;;45.50;40.70;;;-1.00;85.70;;;;;;5032402;28;20239;-72
2021/12/23 07:01:21;;;;;;;46.05;41.45;;;-1.00;87.00;;;;;;5032236;28;20532;-71
2021/12/23 07:04:05;;;;;;;44.72;40.33;;;-0.90;85.10;;;;;;5032253;28;20220;-72
2021/12/23 07:06:34;;;;;;;47.78;43.08;;;-1.00;83.50;;;;;;5032506;28;20240;-71
2021/12/23 07:09:02;;;;;;;46.72;41.97;;;-1.00;83.10;;;;;;5032218;28;20647;-72
2021/12/23 07:11:31;;;;;;;45.47;40.45;;;-1.00;83.50;;;;;;5032233;28;20291;-71
2021/12/23 07:13:58;;;;;;;46.03;41.20;;;-0.90;82.80;;;;;;5032096;28;20300;-72
2021/12/23 07:16:25;;;;;;;48.42;43.60;;;-1.00;82.50;;;;;;5032102;28;20202;-72
2021/12/23 07:18:52;;;;;;;50.55;41.80;;;-1.10;82.70;;;;;;5031989;28;20236;-72
2021/12/23 07:21:19;;;;;;;45.90;41.17;;;-1.10;82.90;;;;;;5032249;28;20197;-71
2021/12/23 07:23:45;;;;;;;45.55;40.75;;;-1.00;83.00;;;;;;5032001;28;20320;-72
2021/12/23 07:26:12;;;;;;;47.60;43.08;;;-1.10;83.10;;;;;;5032200;28;20561;-71
2021/12/23 07:28:41;;;;;;;50.75;41.83;;;-1.00;83.10;;;;;;5032044;28;20293;-72
2021/12/23 07:31:08;;;;;;;48.03;41.38;;;-0.90;83.00;;;;;;5031748;28;20197;-72
2021/12/23 07:33:35;;;;;;;42.25;37.83;;;-0.90;83.40;;;;;;5032565;28;20225;-71
2021/12/23 07:36:04;;;;;;;44.47;40.08;;;-0.80;87.90;;;;;;5035677;28;20189;-72
2021/12/23 07:38:32;;;;;;;43.38;38.75;;;-0.80;85.40;;;;;;5035881;28;20219;-71
2021/12/23 07:40:59;;;;;;;46.55;40.88;;;-0.70;84.40;;;;;;5035428;28;20220;-71
2021/12/23 07:46:12;;;;;;;45.10;40.65;;;-0.70;83.50;;;;;;5035663;28;20290;-71
2021/12/23 07:48:39;;;;;;;1644.10;245.95;;;-0.70;84.90;;;;;;5035447;28;20198;-71
2021/12/23 07:51:06;;;;;;;107.32;49.40;;;-0.60;89.30;;;;;;5034983;28;20646;-71
2021/12/23 07:53:33;;;;;;;123.93;49.47;;;-0.50;89.20;;;;;;5035236;28;20308;-71
2021/12/23 07:56:00;;;;;;;402.98;79.95;;;-0.50;91.30;;;;;;5035305;28;20197;-71
2021/12/23 07:58:26;;;;;;;46.10;40.55;;;-0.40;91.30;;;;;;5035208;28;20228;-71
2021/12/23 08:00:53;;;;;;;47.15;42.10;;;-0.30;89.40;;;;;;5035037;28;20320;-71
2021/12/23 08:03:22;;;;;;;41.42;37.35;;;-0.30;87.60;;;;;;5034929;28;20223;-71
2021/12/23 08:05:48;;;;;;;44.20;39.72;;;-0.20;86.80;;;;;;5035249;28;20292;-71
2021/12/23 08:08:15;;;;;;;47.63;38.45;;;-0.20;84.60;;;;;;5035034;28;20193;-71
2021/12/23 08:10:42;;;;;;;43.15;38.60;;;-0.10;83.90;;;;;;5034864;28;20233;-71
2021/12/23 08:13:09;;;;;;;43.00;38.75;;;-0.10;83.80;;;;;;5035069;28;20237;-71
2021/12/23 08:15:36;;;;;;;44.92;40.53;;;-0.10;84.00;;;;;;5034818;28;20218;-71
2021/12/23 08:18:03;;;;;;;45.97;40.88;;;0.10;83.40;;;;;;5034866;28;20213;-71
2021/12/23 08:20:32;;;;;;;46.10;41.30;;;0.10;83.10;;;;;;5034680;28;20719;-71
2021/12/23 08:22:59;;;;;;;42.95;39.10;;;0.30;82.10;;;;;;5034746;28;20570;-71
2021/12/23 08:25:26;;;;;;;42.97;38.83;;;0.30;80.60;;;;;;5034933;28;20312;-71
2021/12/23 08:27:53;;;;;;;42.42;38.30;;;0.40;80.50;;;;;;5034743;28;20256;-71
2021/12/23 08:30:22;;;;;;;42.65;38.47;;;0.40;82.30;;;;;;5034521;28;20201;-71
2021/12/23 08:32:49;;;;;;;43.10;38.90;;;0.60;82.00;;;;;;5034804;28;20667;-71
2021/12/23 08:35:17;;;;;;;44.40;40.20;;;0.70;80.70;;;;;;5034389;28;20327;-71
2021/12/23 08:37:49;;;;;;;44.97;40.67;;;0.70;78.80;;;;;;5034443;28;20309;-71
2021/12/23 08:40:19;;;;;;;42.13;38.03;;;0.80;78.50;;;;;;5034269;28;20221;-71
2021/12/23 08:42:46;;;;;;;42.20;38.10;;;0.80;78.10;;;;;;5034452;28;20197;-71
2021/12/23 08:45:13;;;;;;;42.35;38.33;;;0.80;78.00;;;;;;5033447;28;20221;-71
2021/12/23 08:47:40;;;;;;;43.30;39.30;;;0.80;77.90;;;;;;5034415;28;20201;-71
2021/12/23 08:50:09;;;;;;;41.72;37.78;;;0.80;78.20;;;;;;5034035;28;20190;-71
2021/12/23 08:52:36;;;;;;;39.78;35.78;;;0.80;78.00;;;;;;5034285;28;20287;-71
2021/12/23 08:55:07;;;;;;;41.10;36.90;;;0.90;78.30;;;;;;5034251;28;20587;-71
2021/12/23 08:57:34;;;;;;;44.10;39.80;;;1.00;78.20;;;;;;5034362;28;20197;-71
2021/12/23 09:00:01;;;;;;;41.65;37.72;;;1.10;77.90;;;;;;5034155;28;20304;-71
2021/12/23 09:02:28;;;;;;;41.03;37.00;;;1.30;79.60;;;;;;5034670;28;20750;-71
2021/12/23 09:04:55;;;;;;;45.08;40.58;;;1.40;80.10;;;;;;5034074;28;20217;-71
2021/12/23 09:07:22;;;;;;;43.78;39.53;;;1.60;80.70;;;;;;5033984;28;20567;-71
2021/12/23 09:09:51;;;;;;;42.63;38.53;;;1.80;79.40;;;;;;5033791;28;20204;-71
2021/12/23 09:12:20;;;;;;;41.28;37.25;;;2.00;80.10;;;;;;5033853;28;20193;-71
2021/12/23 09:14:48;;;;;;;40.70;36.50;;;2.10;78.80;;;;;;5033769;28;20217;-71
2021/12/23 09:17:15;;;;;;;43.05;38.95;;;2.20;75.70;;;;;;5033893;28;20239;-71
2021/12/23 09:19:43;;;;;;;42.00;37.90;;;2.00;75.70;;;;;;5033548;28;20220;-71
2021/12/23 09:22:10;;;;;;;43.95;39.38;;;1.80;76.70;;;;;;5033823;28;20201;-71
2021/12/23 09:24:37;;;;;;;39.00;35.50;;;1.70;77.50;;;;;;5033540;28;20279;-72
2021/12/23 09:27:16;;;;;;;43.72;39.55;;;1.90;77.10;;;;;;5033602;28;20675;-71
2021/12/23 09:32:52;;;;;;;38.95;35.28;;;2.20;76.50;;;;;;5033748;28;20204;-71
2021/12/23 09:35:21;;;;;;;44.10;39.90;;;2.40;76.20;;;;;;5033432;28;20218;-71
2021/12/23 09:37:49;;;;;;;40.70;36.80;;;2.30;76.50;;;;;;5033331;28;20297;-71
2021/12/23 09:40:16;;;;;;;41.50;37.53;;;2.50;76.50;;;;;;5033248;28;20221;-71
2021/12/23 09:42:45;;;;;;;42.70;38.65;;;2.50;76.00;;;;;;5033268;28;20207;-71
2021/12/23 09:45:17;;;;;;;38.90;35.33;;;2.50;76.30;;;;;;5033232;28;20244;-72
2021/12/23 09:47:46;;;;;;;40.88;36.78;;;2.60;76.20;;;;;;5033393;28;20225;-72
2021/12/23 09:50:14;;;;;;;40.08;36.33;;;2.60;76.80;;;;;;5033004;28;20647;-72
2021/12/23 09:52:44;;;;;;;43.30;38.95;;;2.60;76.80;;;;;;5033257;28;20194;-71
2021/12/23 09:55:12;;;;;;;40.08;36.08;;;2.60;77.00;;;;;;5033176;28;20308;-72
2021/12/23 09:57:41;;;;;;;41.47;37.35;;;2.60;77.80;;;;;;5032792;28;20208;-72
2021/12/23 10:00:11;;;;;;;39.22;35.63;;;2.80;77.60;;;;;;5032765;28;20218;-71
2021/12/23 10:02:41;;;;;;;37.00;33.88;;;3.00;77.20;;;;;;5033498;28;20197;-72
2021/12/23 10:05:11;;;;;;;38.05;34.55;;;3.10;76.90;;;;;;5032862;28;20718;-71
2021/12/23 10:07:39;;;;;;;38.50;35.10;;;3.10;77.50;;;;;;5033101;28;20190;-72
2021/12/23 10:10:11;;;;;;;37.30;33.92;;;3.30;77.20;;;;;;5032819;28;20221;-71
2021/12/23 10:27:34;;;;;;;35.40;32.00;;;4.40;75.30;;;;;;5032985;28;20197;-71
2021/12/23 10:33:16;;;;;;;35.33;32.50;;;4.50;74.70;;;;;;5032775;28;20650;-71
2021/12/23 10:38:33;;;;;;;34.55;31.65;;;4.80;74.90;;;;;;5032803;28;20204;-71
2021/12/23 10:41:04;;;;;;;34.85;32.15;;;5.10;74.10;;;;;;5032272;28;20706;-71
2021/12/23 10:43:33;;;;;;;31.58;28.95;;;5.20;73.30;;;;;;5032344;28;20231;-71
2021/12/23 10:46:02;;;;;;;34.08;31.25;;;5.30;73.30;;;;;;5032455;28;20211;-71
2021/12/23 10:48:33;;;;;;;35.25;32.13;;;5.40;72.80;;;;;;5032366;28;20203;-71
2021/12/23 10:51:06;;;;;;;32.42;29.92;;;5.60;72.60;;;;;;5032298;28;20201;-71
2021/12/23 10:53:47;;;;;;;35.10;32.30;;;5.70;75.50;;;;;;5032476;28;20256;-71
2021/12/23 10:59:05;;;;;;;34.00;31.27;;;5.90;72.90;;;;;;5032604;28;20239;-72
2021/12/23 11:01:32;;;;;;;31.42;28.83;;;6.10;71.80;;;;;;5032274;28;20232;-71
2021/12/23 11:04:04;;;;;;;32.28;29.80;;;6.30;71.90;;;;;;5032300;28;20217;-71
2021/12/23 11:06:37;;;;;;;31.75;29.45;;;6.40;71.80;;;;;;5032229;28;20201;-72
2021/12/23 11:09:34;;;;;;;32.75;30.00;;;6.50;72.10;;;;;;5033724;28;20271;-72
2021/12/23 11:27:23;;;;;;;30.20;27.67;;;6.60;70.70;;;;;;5036243;28;20200;-72
2021/12/23 11:37:43;;;;;;;30.35;28.02;;;7.20;68.40;;;;;;5035542;28;20254;-71
2021/12/23 11:40:25;;;;;;;29.52;27.20;;;7.30;69.20;;;;;;5035561;28;20267;-72
2021/12/23 11:43:23;;;;;;;29.63;26.98;;;7.40;68.20;;;;;;5035510;28;20224;-72
2021/12/23 11:45:51;;;;;;;28.45;26.45;;;7.40;68.80;;;;;;5035380;28;20208;-72
2021/12/23 11:48:18;;;;;;;29.35;27.25;;;7.60;69.70;;;;;;5035603;28;20251;-72
2021/12/23 11:50:55;;;;;;;30.75;28.23;;;7.80;68.30;;;;;;5035947;28;20229;-72
2021/12/23 11:53:24;;;;;;;26.73;25.02;;;8.00;67.40;;;;;;5035958;28;20197;-71
2021/12/23 11:55:54;;;;;;;27.83;25.80;;;8.20;66.80;;;;;;5035410;28;20228;-72
2021/12/23 11:58:24;;;;;;;28.50;26.60;;;8.20;66.00;;;;;;5035397;28;20292;-72
2021/12/23 12:01:02;;;;;;;27.90;26.10;;;8.30;65.80;;;;;;5035229;28;20649;-71
2021/12/23 12:03:29;;;;;;;27.40;25.50;;;8.40;65.50;;;;;;5035153;28;20197;-72
2021/12/23 12:06:15;;;;;;;28.20;26.33;;;8.50;66.10;;;;;;5035215;28;20193;-72
2021/12/23 12:08:42;;;;;;;27.05;25.25;;;8.50;65.20;;;;;;5035475;28;20197;-72
2021/12/23 12:11:21;;;;;;;28.67;26.63;;;8.60;64.70;;;;;;5035126;28;20189;-72
2021/12/23 12:13:50;;;;;;;27.20;25.27;;;8.60;64.90;;;;;;5034983;28;20304;-72
2021/12/23 12:16:31;;;;;;;27.02;25.23;;;8.60;63.80;;;;;;5034921;28;20197;-72
2021/12/23 12:18:59;;;;;;;27.45;25.70;;;8.60;63.90;;;;;;5035010;28;20285;-72
2021/12/23 12:21:31;;;;;;;27.90;26.20;;;8.60;64.40;;;;;;5034399;28;20309;-72
2021/12/23 12:24:13;;;;;;;28.50;26.60;;;8.70;63.90;;;;;;5034841;28;20225;-72
2021/12/23 12:27:01;;;;;;;27.83;25.83;;;8.70;63.60;;;;;;5035042;28;20284;-72
2021/12/23 12:29:35;;;;;;;27.50;25.45;;;8.70;63.80;;;;;;5034835;28;20667;-72
2021/12/23 12:32:04;;;;;;;27.53;25.53;;;8.70;63.20;;;;;;5034793;28;20197;-72
2021/12/23 12:34:33;;;;;;;27.73;25.67;;;8.70;63.20;;;;;;5034634;28;20476;-72
2021/12/23 12:37:00;;;;;;;27.48;25.67;;;8.70;63.80;;;;;;5034469;28;20679;-72
2021/12/23 12:39:33;;;;;;;27.17;25.38;;;8.80;63.70;;;;;;5034394;28;20202;-72
2021/12/23 12:42:05;;;;;;;26.50;24.77;;;8.90;63.40;;;;;;5034616;28;20288;-72
2021/12/23 12:44:47;;;;;;;28.07;26.20;;;8.80;63.60;;;;;;5034509;28;20468;-72
2021/12/23 12:47:27;;;;;;;26.60;24.95;;;8.70;63.70;;;;;;5034440;28;20526;-72
2021/12/23 12:50:09;;;;;;;26.20;24.63;;;8.70;64.30;;;;;;5034331;28;20204;-72
2021/12/23 12:52:38;;;;;;;23.08;21.67;;;8.70;64.10;;;;;;5034343;28;20895;-72
2021/12/23 12:55:08;;;;;;;25.95;24.55;;;8.60;65.20;;;;;;5034355;28;20300;-72
2021/12/23 12:57:39;;;;;;;26.65;25.05;;;8.50;64.70;;;;;;5034125;28;20757;-72
2021/12/23 13:00:24;;;;;;;25.67;24.08;;;8.60;64.40;;;;;;5034168;28;20198;-72
2021/12/23 13:02:53;;;;;;;22.77;21.48;;;8.60;64.40;;;;;;5034248;28;20255;-72
2021/12/23 13:05:28;;;;;;;26.45;24.85;;;8.60;64.50;;;;;;5034087;28;20217;-72
2021/12/23 13:07:55;;;;;;;27.27;25.35;;;8.60;64.40;;;;;;5034068;28;20721;-72
2021/12/23 13:10:29;;;;;;;25.02;23.50;;;8.60;64.40;;;;;;5033874;28;20197;-72
2021/12/23 13:13:00;;;;;;;28.35;26.60;;;8.60;64.70;;;;;;5033929;28;20636;-72
2021/12/23 13:15:32;;;;;;;28.10;26.20;;;8.70;64.50;;;;;;5033843;28;20214;-72
2021/12/23 13:18:02;;;;;;;27.88;26.17;;;8.70;65.30;;;;;;5033879;28;20742;-72
2021/12/23 13:20:36;;;;;;;25.95;24.05;;;8.70;64.60;;;;;;5033608;28;20201;-72
2021/12/23 13:23:06;;;;;;;25.83;24.13;;;8.70;64.20;;;;;;5034016;28;20201;-72
2021/12/23 13:25:34;;;;;;;26.08;24.45;;;8.70;64.80;;;;;;5033909;28;20225;-72
2021/12/23 13:28:06;;;;;;;25.33;23.77;;;8.70;65.00;;;;;;5034070;28;20198;-72
2021/12/23 13:30:33;;;;;;;30.40;28.17;;;8.70;65.30;;;;;;5033922;28;20202;-72
2021/12/23 13:33:01;;;;;;;27.85;25.92;;;8.70;64.80;;;;;;5033378;28;20991;-72